sensor_id;sensor_type;location;lat;lon;timestamp;pressure;altitude;pressure_sealevel;temperature;humidity
57628;BME280;43451;49.060;10.616;2022-07-23T00:00:11;96719.41;;;20.55;80.40
57628;BME280;43451;49.060;10.616;2022-07-23T00:02:36;96725.25;;;20.57;80.05
57628;BME280;43451;49.060;10.616;2022-07-23T00:05:02;96727.88;;;20.60;80.13
57628;BME280;43451;49.060;10.616;2022-07-23T00:07:28;96723.44;;;20.63;80.39
57628;BME280;43451;49.060;10.616;2022-07-23T00:09:53;96727.13;;;20.69;80.24
57628;BME280;43451;49.060;10.616;2022-07-23T00:12:19;96721.31;;;20.95;74.94
57628;BME280;43451;49.060;10.616;2022-07-23T00:14:44;96708.25;;;21.04;74.36
57628;BME280;43451;49.060;10.616;2022-07-23T00:17:09;96719.78;;;20.94;76.59
57628;BME280;43451;49.060;10.616;2022-07-23T00:19:35;96714.41;;;20.90;76.93
57628;BME280;43451;49.060;10.616;2022-07-23T00:22:00;96720.38;;;21.16;73.00
57628;BME280;43451;49.060;10.616;2022-07-23T00:24:26;96715.31;;;21.05;75.68
57628;BME280;43451;49.060;10.616;2022-07-23T00:26:51;96712.41;;;21.00;76.56
57628;BME280;43451;49.060;10.616;2022-07-23T00:29:17;96709.63;;;21.09;75.16
57628;BME280;43451;49.060;10.616;2022-07-23T00:31:42;96703.81;;;21.07;75.45
57628;BME280;43451;49.060;10.616;2022-07-23T00:34:08;96700.72;;;21.05;75.45
57628;BME280;43451;49.060;10.616;2022-07-23T00:36:33;96707.94;;;21.12;75.27
57628;BME280;43451;49.060;10.616;2022-07-23T00:38:58;96709.59;;;21.27;72.44
57628;BME280;43451;49.060;10.616;2022-07-23T00:41:24;96713.44;;;21.30;72.58
57628;BME280;43451;49.060;10.616;2022-07-23T00:43:49;96709.59;;;21.46;70.90
57628;BME280;43451;49.060;10.616;2022-07-23T00:46:19;96697.28;;;21.56;70.48
57628;BME280;43451;49.060;10.616;2022-07-23T00:48:45;96703.75;;;21.53;71.43
57628;BME280;43451;49.060;10.616;2022-07-23T00:51:10;96703.66;;;21.38;72.72
57628;BME280;43451;49.060;10.616;2022-07-23T00:53:36;96718.97;;;21.30;74.27
57628;BME280;43451;49.060;10.616;2022-07-23T00:56:02;96717.91;;;21.18;75.89
57628;BME280;43451;49.060;10.616;2022-07-23T00:58:27;96712.09;;;21.16;75.71
57628;BME280;43451;49.060;10.616;2022-07-23T01:00:53;96719.63;;;21.06;77.64
57628;BME280;43451;49.060;10.616;2022-07-23T01:03:18;96719.00;;;21.02;77.04
57628;BME280;43451;49.060;10.616;2022-07-23T01:05:44;96728.34;;;20.96;77.54
57628;BME280;43451;49.060;10.616;2022-07-23T01:08:10;96727.91;;;20.97;76.42
57628;BME280;43451;49.060;10.616;2022-07-23T01:10:36;96723.75;;;21.11;74.41
57628;BME280;43451;49.060;10.616;2022-07-23T01:13:07;96715.31;;;21.15;72.98
57628;BME280;43451;49.060;10.616;2022-07-23T01:15:35;96709.00;;;21.14;73.67
57628;BME280;43451;49.060;10.616;2022-07-23T01:18:01;96710.56;;;21.06;76.02
57628;BME280;43451;49.060;10.616;2022-07-23T01:20:27;96710.25;;;20.95;76.71
57628;BME280;43451;49.060;10.616;2022-07-23T01:22:53;96709.81;;;20.87;77.86
57628;BME280;43451;49.060;10.616;2022-07-23T01:25:19;96705.97;;;20.84;76.98
57628;BME280;43451;49.060;10.616;2022-07-23T01:27:45;96701.66;;;20.83;78.95
57628;BME280;43451;49.060;10.616;2022-07-23T01:30:11;96706.25;;;20.86;78.82
57628;BME280;43451;49.060;10.616;2022-07-23T01:32:37;96711.78;;;20.96;73.84
57628;BME280;43451;49.060;10.616;2022-07-23T01:35:03;96713.78;;;21.23;72.27
57628;BME280;43451;49.060;10.616;2022-07-23T01:37:29;96719.56;;;21.34;71.49
57628;BME280;43451;49.060;10.616;2022-07-23T01:39:55;96726.19;;;21.55;71.05
57628;BME280;43451;49.060;10.616;2022-07-23T01:42:20;96729.88;;;21.52;70.70
57628;BME280;43451;49.060;10.616;2022-07-23T01:44:46;96718.50;;;21.41;73.09
57628;BME280;43451;49.060;10.616;2022-07-23T01:47:11;96726.34;;;21.24;75.36
57628;BME280;43451;49.060;10.616;2022-07-23T01:49:37;96731.28;;;21.10;75.91
57628;BME280;43451;49.060;10.616;2022-07-23T01:52:02;96728.06;;;21.03;76.89
57628;BME280;43451;49.060;10.616;2022-07-23T01:54:31;96735.28;;;21.00;77.09
57628;BME280;43451;49.060;10.616;2022-07-23T01:56:58;96738.81;;;21.01;76.91
57628;BME280;43451;49.060;10.616;2022-07-23T01:59:25;96733.72;;;20.99;76.81
57628;BME280;43451;49.060;10.616;2022-07-23T02:01:52;96737.28;;;21.00;76.27
57628;BME280;43451;49.060;10.616;2022-07-23T02:04:19;96722.66;;;21.08;75.47
57628;BME280;43451;49.060;10.616;2022-07-23T02:06:45;96726.19;;;21.09;74.91
57628;BME280;43451;49.060;10.616;2022-07-23T02:09:10;96727.44;;;21.08;75.09
57628;BME280;43451;49.060;10.616;2022-07-23T02:11:36;96722.50;;;21.21;75.00
57628;BME280;43451;49.060;10.616;2022-07-23T02:14:01;96731.56;;;21.31;75.43
57628;BME280;43451;49.060;10.616;2022-07-23T02:16:26;96720.06;;;21.42;75.92
57628;BME280;43451;49.060;10.616;2022-07-23T02:18:52;96693.34;;;21.48;76.51
57628;BME280;43451;49.060;10.616;2022-07-23T02:21:17;96675.78;;;21.60;75.95
57628;BME280;43451;49.060;10.616;2022-07-23T02:23:43;96672.03;;;21.72;75.61
57628;BME280;43451;49.060;10.616;2022-07-23T02:26:08;96671.72;;;21.79;73.40
57628;BME280;43451;49.060;10.616;2022-07-23T02:28:34;96679.75;;;21.68;74.68
57628;BME280;43451;49.060;10.616;2022-07-23T02:30:59;96692.84;;;21.49;75.97
57628;BME280;43451;49.060;10.616;2022-07-23T02:33:27;96696.88;;;21.39;76.18
57628;BME280;43451;49.060;10.616;2022-07-23T02:35:53;96691.81;;;21.28;78.39
57628;BME280;43451;49.060;10.616;2022-07-23T02:38:18;96677.69;;;21.36;76.28
57628;BME280;43451;49.060;10.616;2022-07-23T02:40:44;96693.34;;;21.39;77.15
57628;BME280;43451;49.060;10.616;2022-07-23T02:43:09;96689.50;;;21.36;76.41
57628;BME280;43451;49.060;10.616;2022-07-23T02:45:35;96686.31;;;21.19;77.28
57628;BME280;43451;49.060;10.616;2022-07-23T02:48:00;96677.41;;;21.06;78.17
57628;BME280;43451;49.060;10.616;2022-07-23T02:50:26;96687.38;;;21.13;76.84
57628;BME280;43451;49.060;10.616;2022-07-23T02:52:51;96688.75;;;21.08;78.05
57628;BME280;43451;49.060;10.616;2022-07-23T02:55:17;96690.31;;;21.00;78.70
57628;BME280;43451;49.060;10.616;2022-07-23T02:57:42;96690.59;;;20.93;79.16
57628;BME280;43451;49.060;10.616;2022-07-23T03:00:08;96674.19;;;20.80;80.58
57628;BME280;43451;49.060;10.616;2022-07-23T03:02:34;96666.97;;;20.73;81.08
57628;BME280;43451;49.060;10.616;2022-07-23T03:04:59;96678.34;;;20.66;81.52
57628;BME280;43451;49.060;10.616;2022-07-23T03:07:25;96687.22;;;20.61;82.00
57628;BME280;43451;49.060;10.616;2022-07-23T03:09:50;96694.13;;;20.56;82.33
57628;BME280;43451;49.060;10.616;2022-07-23T03:12:15;96687.66;;;20.50;82.96
57628;BME280;43451;49.060;10.616;2022-07-23T03:14:44;96696.38;;;20.49;82.30
57628;BME280;43451;49.060;10.616;2022-07-23T03:17:09;96698.25;;;20.43;82.37
57628;BME280;43451;49.060;10.616;2022-07-23T03:19:35;96691.31;;;20.38;82.29
57628;BME280;43451;49.060;10.616;2022-07-23T03:22:02;96696.97;;;20.34;82.32
57628;BME280;43451;49.060;10.616;2022-07-23T03:24:27;96696.38;;;20.30;82.09
57628;BME280;43451;49.060;10.616;2022-07-23T03:27:13;96701.88;;;20.30;81.59
57628;BME280;43451;49.060;10.616;2022-07-23T03:29:38;96690.22;;;20.26;81.06
57628;BME280;43451;49.060;10.616;2022-07-23T03:32:04;96704.47;;;20.25;81.15
57628;BME280;43451;49.060;10.616;2022-07-23T03:34:29;96706.75;;;20.26;79.82
57628;BME280;43451;49.060;10.616;2022-07-23T03:36:55;96710.50;;;20.51;78.31
57628;BME280;43451;49.060;10.616;2022-07-23T03:39:20;96722.06;;;20.58;76.71
57628;BME280;43451;49.060;10.616;2022-07-23T03:41:45;96732.19;;;20.61;76.74
57628;BME280;43451;49.060;10.616;2022-07-23T03:44:11;96743.06;;;20.56;77.32
57628;BME280;43451;49.060;10.616;2022-07-23T03:46:36;96738.09;;;20.51;77.38
57628;BME280;43451;49.060;10.616;2022-07-23T03:49:01;96742.41;;;20.52;77.62
57628;BME280;43451;49.060;10.616;2022-07-23T03:51:27;96740.06;;;20.41;78.13
57628;BME280;43451;49.060;10.616;2022-07-23T03:53:52;96733.91;;;20.28;80.01
57628;BME280;43451;49.060;10.616;2022-07-23T03:56:17;96736.47;;;20.13;80.53
57628;BME280;43451;49.060;10.616;2022-07-23T03:58:43;96740.50;;;20.21;79.66
57628;BME280;43451;49.060;10.616;2022-07-23T04:01:08;96739.09;;;20.26;79.69
57628;BME280;43451;49.060;10.616;2022-07-23T04:03:34;96740.53;;;20.30;79.35
57628;BME280;43451;49.060;10.616;2022-07-23T04:05:59;96751.88;;;20.41;78.72
57628;BME280;43451;49.060;10.616;2022-07-23T04:08:24;96752.94;;;20.35;78.71
57628;BME280;43451;49.060;10.616;2022-07-23T04:10:50;96756.75;;;20.28;79.60
57628;BME280;43451;49.060;10.616;2022-07-23T04:13:16;96762.41;;;20.25;79.85
57628;BME280;43451;49.060;10.616;2022-07-23T04:15:41;96759.88;;;20.39;79.05
57628;BME280;43451;49.060;10.616;2022-07-23T04:18:06;96754.03;;;20.37;79.03
57628;BME280;43451;49.060;10.616;2022-07-23T04:20:33;96756.16;;;20.33;78.83
57628;BME280;43451;49.060;10.616;2022-07-23T04:22:58;96756.78;;;20.37;78.99
57628;BME280;43451;49.060;10.616;2022-07-23T04:25:23;96746.03;;;20.30;80.23
57628;BME280;43451;49.060;10.616;2022-07-23T04:27:49;96744.00;;;20.22;80.36
57628;BME280;43451;49.060;10.616;2022-07-23T04:30:14;96742.28;;;20.06;81.76
57628;BME280;43451;49.060;10.616;2022-07-23T04:32:39;96749.97;;;20.11;81.24
57628;BME280;43451;49.060;10.616;2022-07-23T04:35:05;96751.78;;;20.05;82.01
57628;BME280;43451;49.060;10.616;2022-07-23T04:37:30;96751.78;;;20.05;82.32
57628;BME280;43451;49.060;10.616;2022-07-23T04:39:56;96762.81;;;20.05;81.90
57628;BME280;43451;49.060;10.616;2022-07-23T04:42:21;96761.00;;;20.11;82.33
57628;BME280;43451;49.060;10.616;2022-07-23T04:44:47;96762.63;;;19.99;83.04
57628;BME280;43451;49.060;10.616;2022-07-23T04:47:12;96759.09;;;19.99;83.34
57628;BME280;43451;49.060;10.616;2022-07-23T04:49:37;96764.91;;;20.01;83.48
57628;BME280;43451;49.060;10.616;2022-07-23T04:52:03;96760.81;;;20.05;83.47
57628;BME280;43451;49.060;10.616;2022-07-23T04:54:28;96762.19;;;20.10;83.54
57628;BME280;43451;49.060;10.616;2022-07-23T04:56:54;96759.88;;;19.99;83.90
57628;BME280;43451;49.060;10.616;2022-07-23T04:59:19;96770.72;;;19.93;85.11
57628;BME280;43451;49.060;10.616;2022-07-23T05:01:44;96761.22;;;19.94;85.33
57628;BME280;43451;49.060;10.616;2022-07-23T05:04:10;96759.44;;;20.10;83.89
57628;BME280;43451;49.060;10.616;2022-07-23T05:06:35;96756.50;;;20.04;85.38
57628;BME280;43451;49.060;10.616;2022-07-23T05:09:00;96761.63;;;20.15;84.71
57628;BME280;43451;49.060;10.616;2022-07-23T05:11:26;96772.66;;;20.15;84.27
57628;BME280;43451;49.060;10.616;2022-07-23T05:13:51;96772.97;;;20.26;84.13
57628;BME280;43451;49.060;10.616;2022-07-23T05:16:16;96767.94;;;20.25;84.72
57628;BME280;43451;49.060;10.616;2022-07-23T05:18:42;96772.06;;;20.29;84.14
57628;BME280;43451;49.060;10.616;2022-07-23T05:21:07;96772.88;;;20.39;83.63
57628;BME280;43451;49.060;10.616;2022-07-23T05:23:33;96773.97;;;20.51;82.71
57628;BME280;43451;49.060;10.616;2022-07-23T05:25:58;96769.78;;;20.68;81.08
57628;BME280;43451;49.060;10.616;2022-07-23T05:28:23;96777.41;;;20.64;82.00
57628;BME280;43451;49.060;10.616;2022-07-23T05:30:49;96774.84;;;20.88;80.43
57628;BME280;43451;49.060;10.616;2022-07-23T05:33:14;96777.91;;;20.99;79.30
57628;BME280;43451;49.060;10.616;2022-07-23T05:35:39;96773.19;;;21.00;79.10
57628;BME280;43451;49.060;10.616;2022-07-23T05:38:05;96772.56;;;20.96;79.24
57628;BME280;43451;49.060;10.616;2022-07-23T05:40:30;96766.28;;;21.04;78.33
57628;BME280;43451;49.060;10.616;2022-07-23T05:42:56;96765.50;;;21.13;78.26
57628;BME280;43451;49.060;10.616;2022-07-23T05:45:21;96770.13;;;21.16;78.38
57628;BME280;43451;49.060;10.616;2022-07-23T05:47:49;96769.03;;;21.23;78.49
57628;BME280;43451;49.060;10.616;2022-07-23T05:50:15;96781.97;;;21.44;76.96
57628;BME280;43451;49.060;10.616;2022-07-23T05:52:41;96775.47;;;21.56;76.34
57628;BME280;43451;49.060;10.616;2022-07-23T05:55:09;96784.06;;;21.59;77.22
57628;BME280;43451;49.060;10.616;2022-07-23T05:57:35;96785.69;;;21.93;76.65
57628;BME280;43451;49.060;10.616;2022-07-23T06:00:01;96772.81;;;22.65;74.31
57628;BME280;43451;49.060;10.616;2022-07-23T06:02:26;96776.72;;;23.60;67.80
57628;BME280;43451;49.060;10.616;2022-07-23T06:04:51;96783.88;;;24.26;64.86
57628;BME280;43451;49.060;10.616;2022-07-23T06:07:17;96786.28;;;24.04;64.63
57628;BME280;43451;49.060;10.616;2022-07-23T06:09:42;96784.91;;;23.55;67.69
57628;BME280;43451;49.060;10.616;2022-07-23T06:12:08;96789.47;;;23.28;68.04
57628;BME280;43451;49.060;10.616;2022-07-23T06:14:33;96798.38;;;23.08;68.97
57628;BME280;43451;49.060;10.616;2022-07-23T06:16:58;96798.78;;;22.92;69.81
57628;BME280;43451;49.060;10.616;2022-07-23T06:19:24;96795.78;;;22.81;70.17
57628;BME280;43451;49.060;10.616;2022-07-23T06:21:50;96798.94;;;22.64;70.65
57628;BME280;43451;49.060;10.616;2022-07-23T06:24:15;96796.19;;;22.64;70.83
57628;BME280;43451;49.060;10.616;2022-07-23T06:26:41;96807.38;;;22.70;69.92
57628;BME280;43451;49.060;10.616;2022-07-23T06:29:06;96814.66;;;22.91;69.62
57628;BME280;43451;49.060;10.616;2022-07-23T06:31:32;96811.97;;;23.06;69.32
57628;BME280;43451;49.060;10.616;2022-07-23T06:33:57;96813.44;;;23.16;69.08
57628;BME280;43451;49.060;10.616;2022-07-23T06:36:23;96806.13;;;23.28;69.08
57628;BME280;43451;49.060;10.616;2022-07-23T06:38:48;96808.28;;;23.24;70.72
57628;BME280;43451;49.060;10.616;2022-07-23T06:41:13;96817.03;;;23.32;70.13
57628;BME280;43451;49.060;10.616;2022-07-23T06:43:39;96814.53;;;23.34;69.37
57628;BME280;43451;49.060;10.616;2022-07-23T06:46:04;96809.91;;;23.31;68.86
57628;BME280;43451;49.060;10.616;2022-07-23T06:48:30;96809.66;;;23.29;70.33
57628;BME280;43451;49.060;10.616;2022-07-23T06:50:55;96811.31;;;23.50;64.74
57628;BME280;43451;49.060;10.616;2022-07-23T06:53:20;96805.56;;;23.39;68.21
57628;BME280;43451;49.060;10.616;2022-07-23T06:55:46;96818.72;;;23.29;66.37
57628;BME280;43451;49.060;10.616;2022-07-23T06:58:11;96824.66;;;23.22;67.79
57628;BME280;43451;49.060;10.616;2022-07-23T07:00:39;96828.63;;;23.21;67.88
57628;BME280;43451;49.060;10.616;2022-07-23T07:03:04;96823.41;;;23.23;67.38
57628;BME280;43451;49.060;10.616;2022-07-23T07:05:30;96818.25;;;23.31;68.12
57628;BME280;43451;49.060;10.616;2022-07-23T07:07:55;96828.63;;;23.45;65.95
57628;BME280;43451;49.060;10.616;2022-07-23T07:10:20;96824.06;;;23.57;65.88
57628;BME280;43451;49.060;10.616;2022-07-23T07:12:46;96830.47;;;23.63;64.66
57628;BME280;43451;49.060;10.616;2022-07-23T07:15:11;96832.06;;;23.55;65.10
57628;BME280;43451;49.060;10.616;2022-07-23T07:17:37;96833.13;;;23.57;63.17
57628;BME280;43451;49.060;10.616;2022-07-23T07:20:03;96830.63;;;23.59;63.92
57628;BME280;43451;49.060;10.616;2022-07-23T07:22:29;96835.41;;;23.59;62.34
57628;BME280;43451;49.060;10.616;2022-07-23T07:24:54;96833.13;;;23.57;64.04
57628;BME280;43451;49.060;10.616;2022-07-23T07:27:20;96839.06;;;23.65;63.70
57628;BME280;43451;49.060;10.616;2022-07-23T07:29:45;96843.31;;;23.75;63.82
57628;BME280;43451;49.060;10.616;2022-07-23T07:32:11;96836.19;;;23.98;61.41
57628;BME280;43451;49.060;10.616;2022-07-23T07:34:36;96840.47;;;24.14;63.37
57628;BME280;43451;49.060;10.616;2022-07-23T07:37:01;96835.28;;;24.37;58.87
57628;BME280;43451;49.060;10.616;2022-07-23T07:39:27;96827.97;;;24.69;60.60
57628;BME280;43451;49.060;10.616;2022-07-23T07:41:52;96827.31;;;24.94;58.66
57628;BME280;43451;49.060;10.616;2022-07-23T07:44:17;96816.06;;;25.24;56.37
57628;BME280;43451;49.060;10.616;2022-07-23T07:46:43;96823.44;;;25.27;55.60
57628;BME280;43451;49.060;10.616;2022-07-23T07:49:08;96827.75;;;25.28;55.25
57628;BME280;43451;49.060;10.616;2022-07-23T07:51:34;96836.09;;;25.28;55.43
57628;BME280;43451;49.060;10.616;2022-07-23T07:53:59;96824.47;;;25.30;55.91
57628;BME280;43451;49.060;10.616;2022-07-23T07:56:25;96837.97;;;25.57;53.70
57628;BME280;43451;49.060;10.616;2022-07-23T07:58:50;96842.47;;;25.55;53.35
57628;BME280;43451;49.060;10.616;2022-07-23T08:01:15;96847.97;;;25.49;55.55
57628;BME280;43451;49.060;10.616;2022-07-23T08:03:42;96843.53;;;25.57;53.54
57628;BME280;43451;49.060;10.616;2022-07-23T08:06:07;96842.91;;;25.47;54.37
57628;BME280;43451;49.060;10.616;2022-07-23T08:08:33;96841.50;;;25.58;52.97
57628;BME280;43451;49.060;10.616;2022-07-23T08:10:58;96830.09;;;25.56;53.39
57628;BME280;43451;49.060;10.616;2022-07-23T08:13:24;96836.91;;;25.55;54.87
57628;BME280;43451;49.060;10.616;2022-07-23T08:15:49;96839.75;;;25.81;53.71
57628;BME280;43451;49.060;10.616;2022-07-23T08:18:14;96851.81;;;25.98;52.88
57628;BME280;43451;49.060;10.616;2022-07-23T08:20:40;96847.78;;;25.99;51.12
57628;BME280;43451;49.060;10.616;2022-07-23T08:23:07;96860.16;;;25.98;51.24
57628;BME280;43451;49.060;10.616;2022-07-23T08:25:36;96865.28;;;26.05;51.95
57628;BME280;43451;49.060;10.616;2022-07-23T08:28:04;96869.38;;;26.10;51.74
57628;BME280;43451;49.060;10.616;2022-07-23T08:30:30;96873.91;;;26.33;50.28
57628;BME280;43451;49.060;10.616;2022-07-23T08:32:58;96871.59;;;26.58;50.15
57628;BME280;43451;49.060;10.616;2022-07-23T08:35:29;96877.53;;;26.71;50.11
57628;BME280;43451;49.060;10.616;2022-07-23T08:37:58;96882.97;;;26.92;49.24
57628;BME280;43451;49.060;10.616;2022-07-23T08:40:27;96889.28;;;26.87;49.87
57628;BME280;43451;49.060;10.616;2022-07-23T08:42:53;96891.53;;;26.82;48.98
57628;BME280;43451;49.060;10.616;2022-07-23T08:45:20;96903.38;;;26.72;48.56
57628;BME280;43451;49.060;10.616;2022-07-23T08:47:51;96902.59;;;26.39;49.65
57628;BME280;43451;49.060;10.616;2022-07-23T08:50:17;96887.25;;;26.24;50.11
57628;BME280;43451;49.060;10.616;2022-07-23T08:52:43;96888.09;;;26.09;50.52
57628;BME280;43451;49.060;10.616;2022-07-23T08:55:09;96895.41;;;25.81;50.56
57628;BME280;43451;49.060;10.616;2022-07-23T08:57:35;96901.13;;;25.51;50.83
57628;BME280;43451;49.060;10.616;2022-07-23T09:00:00;96897.97;;;25.43;52.66
57628;BME280;43451;49.060;10.616;2022-07-23T09:02:26;96905.28;;;25.20;50.53
57628;BME280;43451;49.060;10.616;2022-07-23T09:04:52;96899.88;;;24.96;51.03
57628;BME280;43451;49.060;10.616;2022-07-23T09:07:17;96901.91;;;24.81;51.37
57628;BME280;43451;49.060;10.616;2022-07-23T09:09:43;96903.28;;;24.56;52.07
57628;BME280;43451;49.060;10.616;2022-07-23T09:12:11;96900.22;;;24.54;52.35
57628;BME280;43451;49.060;10.616;2022-07-23T09:14:49;96898.88;;;24.35;53.80
57628;BME280;43451;49.060;10.616;2022-07-23T09:17:16;96906.91;;;24.32;52.14
57628;BME280;43451;49.060;10.616;2022-07-23T09:19:44;96905.00;;;24.39;51.03
57628;BME280;43451;49.060;10.616;2022-07-23T09:22:22;96900.78;;;24.28;51.11
57628;BME280;43451;49.060;10.616;2022-07-23T09:30:15;96919.78;;;23.91;52.90
57628;BME280;43451;49.060;10.616;2022-07-23T09:32:41;96909.63;;;23.73;52.82
57628;BME280;43451;49.060;10.616;2022-07-23T09:35:07;96911.75;;;23.54;54.91
57628;BME280;43451;49.060;10.616;2022-07-23T09:37:33;96916.13;;;23.46;54.68
57628;BME280;43451;49.060;10.616;2022-07-23T09:40:09;96913.88;;;23.35;55.17
57628;BME280;43451;49.060;10.616;2022-07-23T09:42:38;96910.09;;;23.24;55.92
57628;BME280;43451;49.060;10.616;2022-07-23T09:45:04;96909.50;;;23.20;56.29
57628;BME280;43451;49.060;10.616;2022-07-23T09:47:35;96904.31;;;23.12;56.17
57628;BME280;43451;49.060;10.616;2022-07-23T09:52:32;96909.75;;;23.07;55.78
57628;BME280;43451;49.060;10.616;2022-07-23T09:55:03;96913.28;;;23.07;56.29
57628;BME280;43451;49.060;10.616;2022-07-23T09:57:31;96913.41;;;23.13;56.68
57628;BME280;43451;49.060;10.616;2022-07-23T10:00:00;96913.09;;;23.11;57.21
57628;BME280;43451;49.060;10.616;2022-07-23T10:02:27;96921.72;;;23.13;58.55
57628;BME280;43451;49.060;10.616;2022-07-23T10:04:53;96925.66;;;23.21;59.72
57628;BME280;43451;49.060;10.616;2022-07-23T10:07:22;96928.44;;;23.21;58.72
57628;BME280;43451;49.060;10.616;2022-07-23T10:09:49;96930.75;;;23.23;59.15
57628;BME280;43451;49.060;10.616;2022-07-23T10:12:18;96928.25;;;23.25;59.72
57628;BME280;43451;49.060;10.616;2022-07-23T10:14:48;96931.81;;;23.25;57.10
57628;BME280;43451;49.060;10.616;2022-07-23T10:17:14;96934.59;;;23.49;55.37
57628;BME280;43451;49.060;10.616;2022-07-23T10:19:40;96930.50;;;23.59;54.92
57628;BME280;43451;49.060;10.616;2022-07-23T10:22:08;96931.44;;;23.56;56.58
57628;BME280;43451;49.060;10.616;2022-07-23T10:27:30;96924.28;;;23.74;55.36
57628;BME280;43451;49.060;10.616;2022-07-23T10:30:07;96921.81;;;23.91;54.28
57628;BME280;43451;49.060;10.616;2022-07-23T10:41:05;96903.09;;;24.15;54.61
57628;BME280;43451;49.060;10.616;2022-07-23T10:43:31;96900.41;;;24.21;57.81
57628;BME280;43451;49.060;10.616;2022-07-23T10:46:22;96903.84;;;24.60;54.61
57628;BME280;43451;49.060;10.616;2022-07-23T10:54:39;96902.78;;;25.08;52.96
57628;BME280;43451;49.060;10.616;2022-07-23T10:57:06;96904.19;;;24.97;53.56
57628;BME280;43451;49.060;10.616;2022-07-23T11:02:23;96907.19;;;24.79;54.07
57628;BME280;43451;49.060;10.616;2022-07-23T11:04:51;96910.25;;;24.81;54.54
57628;BME280;43451;49.060;10.616;2022-07-23T11:07:17;96910.41;;;24.92;54.57
57628;BME280;43451;49.060;10.616;2022-07-23T11:09:43;96895.00;;;24.91;54.70
57628;BME280;43451;49.060;10.616;2022-07-23T11:17:26;96889.78;;;25.34;52.24
57628;BME280;43451;49.060;10.616;2022-07-23T11:22:40;96882.81;;;25.24;53.55
57628;BME280;43451;49.060;10.616;2022-07-23T11:25:12;96888.03;;;25.16;54.46
57628;BME280;43451;49.060;10.616;2022-07-23T11:27:44;96878.09;;;25.30;53.85
57628;BME280;43451;49.060;10.616;2022-07-23T11:35:35;96873.63;;;25.59;53.90
57628;BME280;43451;49.060;10.616;2022-07-23T11:38:06;96869.28;;;25.78;52.28
57628;BME280;43451;49.060;10.616;2022-07-23T11:40:33;96870.66;;;25.83;52.29
57628;BME280;43451;49.060;10.616;2022-07-23T11:43:02;96874.34;;;26.00;50.88
57628;BME280;43451;49.060;10.616;2022-07-23T11:45:40;96872.88;;;26.05;50.49
57628;BME280;43451;49.060;10.616;2022-07-23T11:48:08;96866.75;;;26.27;49.85
57628;BME280;43451;49.060;10.616;2022-07-23T11:50:36;96863.25;;;26.58;50.32
57628;BME280;43451;49.060;10.616;2022-07-23T11:53:02;96862.31;;;26.72;49.63
57628;BME280;43451;49.060;10.616;2022-07-23T11:55:29;96856.41;;;26.59;49.71
57628;BME280;43451;49.060;10.616;2022-07-23T11:57:55;96858.38;;;26.53;51.30
57628;BME280;43451;49.060;10.616;2022-07-23T12:00:23;96858.78;;;26.72;50.54
57628;BME280;43451;49.060;10.616;2022-07-23T12:02:55;96848.91;;;26.76;48.36
57628;BME280;43451;49.060;10.616;2022-07-23T12:05:24;96847.19;;;26.84;48.57
57628;BME280;43451;49.060;10.616;2022-07-23T12:07:52;96850.69;;;26.74;49.62
57628;BME280;43451;49.060;10.616;2022-07-23T12:12:56;96840.09;;;26.89;50.55
57628;BME280;43451;49.060;10.616;2022-07-23T12:15:31;96852.50;;;26.82;47.58
57628;BME280;43451;49.060;10.616;2022-07-23T12:18:00;96848.66;;;26.74;48.50
57628;BME280;43451;49.060;10.616;2022-07-23T12:20:29;96846.25;;;26.56;50.86
57628;BME280;43451;49.060;10.616;2022-07-23T12:22:57;96841.56;;;26.79;48.68
57628;BME280;43451;49.060;10.616;2022-07-23T12:25:27;96841.72;;;26.64;49.43
57628;BME280;43451;49.060;10.616;2022-07-23T12:28:03;96842.81;;;26.72;48.39
57628;BME280;43451;49.060;10.616;2022-07-23T12:30:41;96846.72;;;26.54;50.09
57628;BME280;43451;49.060;10.616;2022-07-23T12:33:09;96843.72;;;26.58;50.48
57628;BME280;43451;49.060;10.616;2022-07-23T12:35:40;96840.09;;;26.83;48.55
57628;BME280;43451;49.060;10.616;2022-07-23T12:38:10;96836.06;;;26.90;48.19
57628;BME280;43451;49.060;10.616;2022-07-23T12:40:42;96838.44;;;27.03;49.25
57628;BME280;43451;49.060;10.616;2022-07-23T12:43:10;96839.47;;;27.11;46.94
57628;BME280;43451;49.060;10.616;2022-07-23T12:48:16;96842.47;;;27.02;48.30
57628;BME280;43451;49.060;10.616;2022-07-23T12:50:44;96847.25;;;26.96;48.83
57628;BME280;43451;49.060;10.616;2022-07-23T12:53:19;96855.44;;;27.11;48.22
57628;BME280;43451;49.060;10.616;2022-07-23T12:55:46;96858.03;;;27.14;49.43
57628;BME280;43451;49.060;10.616;2022-07-23T12:58:19;96856.84;;;27.32;49.06
57628;BME280;43451;49.060;10.616;2022-07-23T13:00:53;96858.97;;;27.54;47.30
57628;BME280;43451;49.060;10.616;2022-07-23T13:05:51;96850.03;;;27.39;46.61
57628;BME280;43451;49.060;10.616;2022-07-23T13:08:17;96855.06;;;27.29;47.53
57628;BME280;43451;49.060;10.616;2022-07-23T13:10:42;96859.34;;;27.24;47.61
57628;BME280;43451;49.060;10.616;2022-07-23T13:13:10;96857.81;;;27.23;46.75
57628;BME280;43451;49.060;10.616;2022-07-23T13:15:35;96858.84;;;27.26;47.23
57628;BME280;43451;49.060;10.616;2022-07-23T13:18:01;96851.06;;;27.47;45.52
57628;BME280;43451;49.060;10.616;2022-07-23T13:20:26;96856.41;;;27.56;46.47
57628;BME280;43451;49.060;10.616;2022-07-23T13:22:55;96841.03;;;27.77;44.60
57628;BME280;43451;49.060;10.616;2022-07-23T13:25:20;96841.03;;;27.83;46.95
57628;BME280;43451;49.060;10.616;2022-07-23T13:27:45;96845.88;;;27.83;45.65
57628;BME280;43451;49.060;10.616;2022-07-23T13:30:11;96840.47;;;27.68;44.64
57628;BME280;43451;49.060;10.616;2022-07-23T13:32:36;96852.38;;;27.57;43.35
57628;BME280;43451;49.060;10.616;2022-07-23T13:35:03;96856.31;;;27.34;43.57